Time;durP1;ratioP1;P1;durP2;ratioP2;P2;SDS_P1;SDS_P2;PMS_P1;PMS_P2;Temp;Humidity;BMP_temperature;BMP_pressure;BME280_temperature;BME280_humidity;BME280_pressure;Samples;Min_cycle;Max_cycle;Signal;HPM_P1;HPM_P2
2022/10/18 00:00:33;;;;;;;0.00;0.00;;;;;;;;;;1740331;28;20194;-71
2022/10/18 00:01:24;;;;;;;0.00;0.00;;;;;;;;;;1740317;28;20238;-71
2022/10/18 00:02:16;;;;;;;0.00;0.00;;;;;;;;;;1745184;28;20198;-71
2022/10/18 00:03:09;;;;;;;0.00;0.00;;;;;;;;;;1746635;28;20198;-71
2022/10/18 00:04:00;;;;;;;0.00;0.00;;;;;;;;;;1740707;28;20237;-71
2022/10/18 00:04:52;;;;;;;0.00;0.00;;;;;;;;;;1739803;28;20210;-71
2022/10/18 00:05:43;;;;;;;0.00;0.00;;;;;;;;;;1739989;28;20297;-71
2022/10/18 00:06:35;;;;;;;0.00;0.00;;;;;;;;;;1740131;28;20644;-71
2022/10/18 00:07:26;;;;;;;0.00;0.00;;;;;;;;;;1739829;28;20623;-71
2022/10/18 00:08:19;;;;;;;0.00;0.00;;;;;;;;;;1740170;28;20214;-71
2022/10/18 00:09:10;;;;;;;0.00;0.00;;;;;;;;;;1739404;28;20214;-71
2022/10/18 00:10:03;;;;;;;0.00;0.00;;;;;;;;;;1739970;28;20199;-71
2022/10/18 00:10:54;;;;;;;0.00;0.00;;;;;;;;;;1746042;28;20213;-70
2022/10/18 00:11:46;;;;;;;0.00;0.00;;;;;;;;;;1745718;28;20205;-70
2022/10/18 00:12:37;;;;;;;0.00;0.00;;;;;;;;;;1739882;28;20206;-70
2022/10/18 00:13:30;;;;;;;0.00;0.00;;;;;;;;;;1740164;28;20199;-70
2022/10/18 00:14:21;;;;;;;0.00;0.00;;;;;;;;;;1739684;28;20708;-70
2022/10/18 00:15:13;;;;;;;0.00;0.00;;;;;;;;;;1740025;28;20301;-70
2022/10/18 00:16:05;;;;;;;0.00;0.00;;;;;;;;;;1740217;28;20213;-70
2022/10/18 00:16:57;;;;;;;0.00;0.00;;;;;;;;;;1739772;28;20230;-70
2022/10/18 00:17:48;;;;;;;0.00;0.00;;;;;;;;;;1740270;28;20288;-70
2022/10/18 00:18:42;;;;;;;0.00;0.00;;;;;;;;;;1739921;28;20633;-70
2022/10/18 00:19:33;;;;;;;0.00;0.00;;;;;;;;;;1739760;28;20290;-70
2022/10/18 00:20:25;;;;;;;0.00;0.00;;;;;;;;;;1740142;28;20259;-70
2022/10/18 00:21:17;;;;;;;0.00;0.00;;;;;;;;;;1740319;28;20625;-71
2022/10/18 00:22:09;;;;;;;0.00;0.00;;;;;;;;;;1739890;28;20210;-71
2022/10/18 00:23:00;;;;;;;0.00;0.00;;;;;;;;;;1740441;28;20247;-71
2022/10/18 00:23:53;;;;;;;0.00;0.00;;;;;;;;;;1744966;28;20237;-71
2022/10/18 00:24:44;;;;;;;0.00;0.00;;;;;;;;;;1747016;28;20234;-71
2022/10/18 00:25:36;;;;;;;0.00;0.00;;;;;;;;;;1742992;28;20250;-71
2022/10/18 00:26:28;;;;;;;0.00;0.00;;;;;;;;;;1733436;28;20294;-70
2022/10/18 00:27:20;;;;;;;0.00;0.00;;;;;;;;;;1738668;28;20215;-70
2022/10/18 00:28:11;;;;;;;0.00;0.00;;;;;;;;;;1740960;28;20614;-70
2022/10/18 00:29:05;;;;;;;0.00;0.00;;;;;;;;;;1741411;28;20226;-70
2022/10/18 00:29:56;;;;;;;0.00;0.00;;;;;;;;;;1741240;28;20641;-71
2022/10/18 00:30:48;;;;;;;0.00;0.00;;;;;;;;;;1741419;28;20195;-70
2022/10/18 00:31:39;;;;;;;0.00;0.00;;;;;;;;;;1740968;28;20344;-70
2022/10/18 00:32:31;;;;;;;0.00;0.00;;;;;;;;;;1741139;28;20603;-70
2022/10/18 00:33:22;;;;;;;0.00;0.00;;;;;;;;;;1741328;28;20245;-70
2022/10/18 00:34:16;;;;;;;0.00;0.00;;;;;;;;;;1741175;28;20226;-70
2022/10/18 00:35:08;;;;;;;0.00;0.00;;;;;;;;;;1741610;28;20245;-70
2022/10/18 00:36:01;;;;;;;0.00;0.00;;;;;;;;;;1741107;28;20682;-71
2022/10/18 00:36:52;;;;;;;0.00;0.00;;;;;;;;;;1740872;28;20237;-71
2022/10/18 00:37:44;;;;;;;0.00;0.00;;;;;;;;;;1741356;28;20785;-71
2022/10/18 00:38:35;;;;;;;0.00;0.00;;;;;;;;;;1741301;28;20256;-71
2022/10/18 00:39:27;;;;;;;0.00;0.00;;;;;;;;;;1741493;28;20636;-71
2022/10/18 00:40:18;;;;;;;0.00;0.00;;;;;;;;;;1744207;28;20293;-71
2022/10/18 00:41:11;;;;;;;0.00;0.00;;;;;;;;;;1748444;28;20667;-71
2022/10/18 00:42:02;;;;;;;0.00;0.00;;;;;;;;;;1747316;28;20740;-71
2022/10/18 00:42:54;;;;;;;0.00;0.00;;;;;;;;;;1748215;28;20241;-71
2022/10/18 00:43:52;;;;;;;0.00;0.00;;;;;;;;;;1744102;28;20241;-71
2022/10/18 00:45:03;;;;;;;0.00;0.00;;;;;;;;;;1741372;28;20202;-71
2022/10/18 00:45:54;;;;;;;0.00;0.00;;;;;;;;;;1747375;28;20286;-70
2022/10/18 00:46:47;;;;;;;0.00;0.00;;;;;;;;;;1748146;28;20233;-70
2022/10/18 00:47:38;;;;;;;0.00;0.00;;;;;;;;;;1744760;28;20257;-70
2022/10/18 00:48:30;;;;;;;0.00;0.00;;;;;;;;;;1741099;28;20214;-70
2022/10/18 00:49:24;;;;;;;0.00;0.00;;;;;;;;;;1741445;28;20623;-70
2022/10/18 00:50:17;;;;;;;0.00;0.00;;;;;;;;;;1742174;28;20288;-70
2022/10/18 00:51:08;;;;;;;0.00;0.00;;;;;;;;;;1748145;28;20226;-71
2022/10/18 00:52:01;;;;;;;0.00;0.00;;;;;;;;;;1747592;28;20202;-71
2022/10/18 00:52:54;;;;;;;0.00;0.00;;;;;;;;;;1747981;28;20628;-71
2022/10/18 00:53:46;;;;;;;0.00;0.00;;;;;;;;;;1747577;28;20584;-71
2022/10/18 00:54:40;;;;;;;0.00;0.00;;;;;;;;;;1742474;28;20397;-71
2022/10/18 00:55:32;;;;;;;0.00;0.00;;;;;;;;;;1741224;28;20195;-71
2022/10/18 00:56:23;;;;;;;0.00;0.00;;;;;;;;;;1741323;28;20743;-71
2022/10/18 00:57:15;;;;;;;0.00;0.00;;;;;;;;;;1741137;28;20619;-71
2022/10/18 00:58:07;;;;;;;0.00;0.00;;;;;;;;;;1741324;28;20210;-71
2022/10/18 00:58:58;;;;;;;0.00;0.00;;;;;;;;;;1740292;28;20649;-71
2022/10/18 00:59:50;;;;;;;0.00;0.00;;;;;;;;;;1741255;28;20230;-71
2022/10/18 01:00:41;;;;;;;0.00;0.00;;;;;;;;;;1740971;28;20306;-71
2022/10/18 01:01:33;;;;;;;0.00;0.00;;;;;;;;;;1734442;28;20214;-70
2022/10/18 01:02:25;;;;;;;0.00;0.00;;;;;;;;;;1746283;28;20723;-70
2022/10/18 01:03:17;;;;;;;0.00;0.00;;;;;;;;;;1747990;28;20229;-70
2022/10/18 01:04:08;;;;;;;0.00;0.00;;;;;;;;;;1747641;28;20651;-70
2022/10/18 01:05:03;;;;;;;0.00;0.00;;;;;;;;;;1747565;28;20260;-70
2022/10/18 01:05:56;;;;;;;0.00;0.00;;;;;;;;;;1740563;28;20199;-71
2022/10/18 01:06:50;;;;;;;0.00;0.00;;;;;;;;;;1740820;28;20264;-71
2022/10/18 01:08:00;;;;;;;0.00;0.00;;;;;;;;;;1741296;28;20203;-71
2022/10/18 01:09:06;;;;;;;0.00;0.00;;;;;;;;;;1740907;28;20732;-71
2022/10/18 01:10:00;;;;;;;0.00;0.00;;;;;;;;;;1740949;28;20175;-71
2022/10/18 01:10:55;;;;;;;0.00;0.00;;;;;;;;;;1741035;28;20633;-70
2022/10/18 01:12:05;;;;;;;0.00;0.00;;;;;;;;;;1740999;28;20234;-70
2022/10/18 01:13:02;;;;;;;0.00;0.00;;;;;;;;;;1741025;28;20286;-70
2022/10/18 01:13:59;;;;;;;0.00;0.00;;;;;;;;;;1741150;28;20202;-70
2022/10/18 01:14:52;;;;;;;0.00;0.00;;;;;;;;;;1741214;28;20843;-70
2022/10/18 01:15:49;;;;;;;0.00;0.00;;;;;;;;;;1740686;28;20203;-70
2022/10/18 01:16:43;;;;;;;0.00;0.00;;;;;;;;;;1741157;28;20279;-71
2022/10/18 01:17:39;;;;;;;0.00;0.00;;;;;;;;;;1740918;28;20245;-71
2022/10/18 01:18:35;;;;;;;0.00;0.00;;;;;;;;;;1740925;28;20219;-71
2022/10/18 01:19:44;;;;;;;0.00;0.00;;;;;;;;;;1741061;28;20518;-71
2022/10/18 01:20:47;;;;;;;0.00;0.00;;;;;;;;;;1741167;28;20195;-71
2022/10/18 01:21:43;;;;;;;0.00;0.00;;;;;;;;;;1740625;28;20273;-71
2022/10/18 01:22:37;;;;;;;0.00;0.00;;;;;;;;;;1740834;28;20242;-70
2022/10/18 01:23:37;;;;;;;0.00;0.00;;;;;;;;;;1740680;28;20198;-70
2022/10/18 01:24:45;;;;;;;0.00;0.00;;;;;;;;;;1741106;28;20269;-70
2022/10/18 01:25:40;;;;;;;0.00;0.00;;;;;;;;;;1741053;28;20199;-70
2022/10/18 01:26:37;;;;;;;0.00;0.00;;;;;;;;;;1734019;28;20675;-71
2022/10/18 01:27:36;;;;;;;0.00;0.00;;;;;;;;;;1740534;28;20203;-71
2022/10/18 01:28:35;;;;;;;0.00;0.00;;;;;;;;;;1741062;28;20215;-71
2022/10/18 01:29:32;;;;;;;0.00;0.00;;;;;;;;;;1740891;28;20609;-71
2022/10/18 01:30:36;;;;;;;0.00;0.00;;;;;;;;;;1744403;28;20229;-71
2022/10/18 01:31:31;;;;;;;0.00;0.00;;;;;;;;;;1747942;28;20198;-71
2022/10/18 01:32:24;;;;;;;0.00;0.00;;;;;;;;;;1747011;28;20245;-71
2022/10/18 01:33:20;;;;;;;0.00;0.00;;;;;;;;;;1748241;28;20256;-71
2022/10/18 01:34:14;;;;;;;0.00;0.00;;;;;;;;;;1739778;28;20239;-71
2022/10/18 01:35:08;;;;;;;0.00;0.00;;;;;;;;;;1741281;28;20207;-71
2022/10/18 01:36:03;;;;;;;0.00;0.00;;;;;;;;;;1740821;28;20249;-70
2022/10/18 01:36:56;;;;;;;0.00;0.00;;;;;;;;;;1743110;28;20226;-70
2022/10/18 01:37:48;;;;;;;0.00;0.00;;;;;;;;;;1747299;28;20233;-70
2022/10/18 01:38:41;;;;;;;0.00;0.00;;;;;;;;;;1747397;28;20548;-70
2022/10/18 01:39:35;;;;;;;0.00;0.00;;;;;;;;;;1747971;28;20241;-70
2022/10/18 01:40:27;;;;;;;0.00;0.00;;;;;;;;;;1747806;28;20571;-70
2022/10/18 01:41:19;;;;;;;0.00;0.00;;;;;;;;;;1748314;28;20249;-70
2022/10/18 01:42:13;;;;;;;0.00;0.00;;;;;;;;;;1742831;28;20222;-70
2022/10/18 01:43:05;;;;;;;0.00;0.00;;;;;;;;;;1740800;28;20220;-70
2022/10/18 01:43:59;;;;;;;0.00;0.00;;;;;;;;;;1740525;28;20252;-70
2022/10/18 01:44:51;;;;;;;0.00;0.00;;;;;;;;;;1741148;28;20241;-70
2022/10/18 01:45:44;;;;;;;0.00;0.00;;;;;;;;;;1741158;28;20207;-70
2022/10/18 01:46:35;;;;;;;0.00;0.00;;;;;;;;;;1740872;28;20242;-70
2022/10/18 01:47:28;;;;;;;0.00;0.00;;;;;;;;;;1747409;28;20225;-70
2022/10/18 01:48:19;;;;;;;0.00;0.00;;;;;;;;;;1747504;28;20288;-70
2022/10/18 01:49:11;;;;;;;0.00;0.00;;;;;;;;;;1747453;28;20202;-70
2022/10/18 01:50:06;;;;;;;0.00;0.00;;;;;;;;;;1748046;28;20726;-70
2022/10/18 01:50:58;;;;;;;0.00;0.00;;;;;;;;;;1747834;28;20206;-71
2022/10/18 01:51:49;;;;;;;0.00;0.00;;;;;;;;;;1747448;28;20663;-71
2022/10/18 01:52:48;;;;;;;0.00;0.00;;;;;;;;;;1747729;28;20200;-71
2022/10/18 01:53:39;;;;;;;0.00;0.00;;;;;;;;;;1747782;28;20286;-71
2022/10/18 01:54:33;;;;;;;0.00;0.00;;;;;;;;;;1747289;28;20515;-71
2022/10/18 01:55:27;;;;;;;0.00;0.00;;;;;;;;;;1744645;28;20301;-71
2022/10/18 01:56:24;;;;;;;0.00;0.00;;;;;;;;;;1740961;28;20198;-70
2022/10/18 01:57:20;;;;;;;0.00;0.00;;;;;;;;;;1745866;28;20245;-70
2022/10/18 01:58:15;;;;;;;0.00;0.00;;;;;;;;;;1748121;28;20559;-70
2022/10/18 01:59:12;;;;;;;0.00;0.00;;;;;;;;;;1747400;28;20301;-70
2022/10/18 02:00:06;;;;;;;0.00;0.00;;;;;;;;;;1746764;28;20186;-70
2022/10/18 02:01:02;;;;;;;0.00;0.00;;;;;;;;;;1740830;28;20242;-71
2022/10/18 02:02:00;;;;;;;0.00;0.00;;;;;;;;;;1740519;28;20183;-70
2022/10/18 02:02:54;;;;;;;0.00;0.00;;;;;;;;;;1740797;28;20685;-70
2022/10/18 02:03:47;;;;;;;0.00;0.00;;;;;;;;;;1740716;28;20579;-70
2022/10/18 02:04:41;;;;;;;0.00;0.00;;;;;;;;;;1740487;28;20298;-70
2022/10/18 02:05:39;;;;;;;0.00;0.00;;;;;;;;;;1740473;28;20669;-70
2022/10/18 02:06:31;;;;;;;0.00;0.00;;;;;;;;;;1740761;28;20346;-71
2022/10/18 02:07:28;;;;;;;0.00;0.00;;;;;;;;;;1746793;28;20579;-71
2022/10/18 02:08:25;;;;;;;0.00;0.00;;;;;;;;;;1747808;28;20643;-71
2022/10/18 02:09:19;;;;;;;0.00;0.00;;;;;;;;;;1747755;28;20202;-71
2022/10/18 02:10:12;;;;;;;0.00;0.00;;;;;;;;;;1748053;28;20667;-71
2022/10/18 02:11:06;;;;;;;0.00;0.00;;;;;;;;;;1747036;28;20206;-70
2022/10/18 02:11:57;;;;;;;0.00;0.00;;;;;;;;;;1747165;28;20264;-70
2022/10/18 02:12:51;;;;;;;0.00;0.00;;;;;;;;;;1743494;28;20294;-70
2022/10/18 02:13:45;;;;;;;0.00;0.00;;;;;;;;;;1741227;28;20245;-70
2022/10/18 02:14:37;;;;;;;0.00;0.00;;;;;;;;;;1746192;28;20225;-70
2022/10/18 02:15:29;;;;;;;0.00;0.00;;;;;;;;;;1747623;28;20249;-70
2022/10/18 02:16:25;;;;;;;0.00;0.00;;;;;;;;;;1747539;28;20646;-70
2022/10/18 02:17:16;;;;;;;0.00;0.00;;;;;;;;;;1747070;28;20265;-70
2022/10/18 02:18:11;;;;;;;0.00;0.00;;;;;;;;;;1747625;28;20207;-70
2022/10/18 02:19:05;;;;;;;0.00;0.00;;;;;;;;;;1747189;28;20652;-70
2022/10/18 02:19:57;;;;;;;0.00;0.00;;;;;;;;;;1747720;28;20260;-70
2022/10/18 02:20:49;;;;;;;0.00;0.00;;;;;;;;;;1743041;28;20250;-70
2022/10/18 02:21:42;;;;;;;0.00;0.00;;;;;;;;;;1740424;28;20656;-70
2022/10/18 02:22:34;;;;;;;0.00;0.00;;;;;;;;;;1742314;28;20250;-70
2022/10/18 02:23:27;;;;;;;0.00;0.00;;;;;;;;;;1747128;28;20198;-70
2022/10/18 02:24:18;;;;;;;0.00;0.00;;;;;;;;;;1741107;28;20246;-70
2022/10/18 02:25:14;;;;;;;0.00;0.00;;;;;;;;;;1740976;28;20207;-70
2022/10/18 02:26:05;;;;;;;0.00;0.00;;;;;;;;;;1740742;28;20246;-71
2022/10/18 02:26:57;;;;;;;0.00;0.00;;;;;;;;;;1740651;28;20257;-71
2022/10/18 02:27:48;;;;;;;0.00;0.00;;;;;;;;;;1742093;28;20257;-71
2022/10/18 02:28:41;;;;;;;0.00;0.00;;;;;;;;;;1740504;28;20207;-71
2022/10/18 02:29:32;;;;;;;0.00;0.00;;;;;;;;;;1740621;28;20230;-71
2022/10/18 02:30:27;;;;;;;0.00;0.00;;;;;;;;;;1740917;28;20203;-71
2022/10/18 02:31:20;;;;;;;0.00;0.00;;;;;;;;;;1740781;28;20239;-71
2022/10/18 02:32:18;;;;;;;0.00;0.00;;;;;;;;;;1740195;28;20629;-71
2022/10/18 02:33:12;;;;;;;0.00;0.00;;;;;;;;;;1740414;28;20191;-71
2022/10/18 02:34:07;;;;;;;0.00;0.00;;;;;;;;;;1740063;28;20621;-71
2022/10/18 02:35:00;;;;;;;0.00;0.00;;;;;;;;;;1740650;28;20270;-71
2022/10/18 02:35:53;;;;;;;0.00;0.00;;;;;;;;;;1740552;28;20209;-71
2022/10/18 02:36:46;;;;;;;0.00;0.00;;;;;;;;;;1741521;28;20670;-70
2022/10/18 02:37:39;;;;;;;0.00;0.00;;;;;;;;;;1747175;28;20202;-70
2022/10/18 02:38:31;;;;;;;0.00;0.00;;;;;;;;;;1745935;28;20241;-70
2022/10/18 02:39:25;;;;;;;0.00;0.00;;;;;;;;;;1740577;28;20210;-70
2022/10/18 02:40:16;;;;;;;0.00;0.00;;;;;;;;;;1740715;28;20739;-70
2022/10/18 02:41:09;;;;;;;0.00;0.00;;;;;;;;;;1740636;28;20202;-71
2022/10/18 02:42:00;;;;;;;0.00;0.00;;;;;;;;;;1740011;28;20235;-71
2022/10/18 02:42:54;;;;;;;0.00;0.00;;;;;;;;;;1745209;28;20195;-71
2022/10/18 02:43:45;;;;;;;0.00;0.00;;;;;;;;;;1747344;28;20248;-71
2022/10/18 02:44:38;;;;;;;0.00;0.00;;;;;;;;;;1746978;28;20194;-71
2022/10/18 02:45:29;;;;;;;0.00;0.00;;;;;;;;;;1745314;28;20668;-71
2022/10/18 02:46:21;;;;;;;0.00;0.00;;;;;;;;;;1740513;28;20217;-71
2022/10/18 02:47:14;;;;;;;0.00;0.00;;;;;;;;;;1743489;28;20573;-71
2022/10/18 02:48:06;;;;;;;0.00;0.00;;;;;;;;;;1740202;28;20211;-71
2022/10/18 02:48:57;;;;;;;0.00;0.00;;;;;;;;;;1740413;28;20237;-71
2022/10/18 02:49:49;;;;;;;0.00;0.00;;;;;;;;;;1739942;28;20296;-71
2022/10/18 02:50:40;;;;;;;0.00;0.00;;;;;;;;;;1739733;28;20695;-71
2022/10/18 02:51:33;;;;;;;0.00;0.00;;;;;;;;;;1740655;28;20229;-70
2022/10/18 02:52:24;;;;;;;0.00;0.00;;;;;;;;;;1739967;28;20207;-71
2022/10/18 02:53:16;;;;;;;0.00;0.00;;;;;;;;;;1740734;28;20206;-71
2022/10/18 02:54:07;;;;;;;0.00;0.00;;;;;;;;;;1744991;28;20245;-71
2022/10/18 02:55:00;;;;;;;0.00;0.00;;;;;;;;;;1747322;28;20206;-71
2022/10/18 02:55:51;;;;;;;0.00;0.00;;;;;;;;;;1746976;28;20727;-71
2022/10/18 02:56:43;;;;;;;0.00;0.00;;;;;;;;;;1746782;28;20321;-71
2022/10/18 02:57:34;;;;;;;0.00;0.00;;;;;;;;;;1740451;28;20207;-71
2022/10/18 02:58:26;;;;;;;0.00;0.00;;;;;;;;;;1740067;28;20199;-71
2022/10/18 02:59:17;;;;;;;0.00;0.00;;;;;;;;;;1740489;28;20218;-71
2022/10/18 03:00:10;;;;;;;0.00;0.00;;;;;;;;;;1740472;28;20206;-71
2022/10/18 03:01:01;;;;;;;0.00;0.00;;;;;;;;;;1732534;28;20251;-70
2022/10/18 03:01:53;;;;;;;0.00;0.00;;;;;;;;;;1735871;28;20203;-70
2022/10/18 03:02:45;;;;;;;0.00;0.00;;;;;;;;;;1740238;28;20235;-70
2022/10/18 03:03:37;;;;;;;0.00;0.00;;;;;;;;;;1740967;28;20517;-70
2022/10/18 03:04:28;;;;;;;0.00;0.00;;;;;;;;;;1740529;28;20261;-70
2022/10/18 03:05:20;;;;;;;0.00;0.00;;;;;;;;;;1741294;28;20214;-70
2022/10/18 03:06:11;;;;;;;0.00;0.00;;;;;;;;;;1741010;28;20648;-70
2022/10/18 03:07:03;;;;;;;0.00;0.00;;;;;;;;;;1740440;28;20214;-70
2022/10/18 03:07:56;;;;;;;0.00;0.00;;;;;;;;;;1740563;28;20211;-70
2022/10/18 03:08:48;;;;;;;0.00;0.00;;;;;;;;;;1740100;28;20286;-70
2022/10/18 03:09:39;;;;;;;0.00;0.00;;;;;;;;;;1740486;28;20257;-70
2022/10/18 03:10:30;;;;;;;0.00;0.00;;;;;;;;;;1740523;28;20203;-70
2022/10/18 03:11:22;;;;;;;0.00;0.00;;;;;;;;;;1740514;28;20210;-70
2022/10/18 03:12:13;;;;;;;0.00;0.00;;;;;;;;;;1739410;28;20260;-70
2022/10/18 03:13:05;;;;;;;0.00;0.00;;;;;;;;;;1740225;28;20678;-70
2022/10/18 03:13:56;;;;;;;0.00;0.00;;;;;;;;;;1740180;28;20650;-70
2022/10/18 03:14:48;;;;;;;0.00;0.00;;;;;;;;;;1740254;28;20226;-70
2022/10/18 03:15:41;;;;;;;0.00;0.00;;;;;;;;;;1746092;28;20312;-70
2022/10/18 03:16:33;;;;;;;0.00;0.00;;;;;;;;;;1740676;28;20203;-70
2022/10/18 03:17:24;;;;;;;0.00;0.00;;;;;;;;;;1739756;28;20218;-70
2022/10/18 03:18:18;;;;;;;0.00;0.00;;;;;;;;;;1740374;28;20202;-70
2022/10/18 03:19:09;;;;;;;0.00;0.00;;;;;;;;;;1746544;28;20237;-70
2022/10/18 03:20:03;;;;;;;0.00;0.00;;;;;;;;;;1743540;28;20571;-70
2022/10/18 03:20:54;;;;;;;0.00;0.00;;;;;;;;;;1740511;28;20239;-71
2022/10/18 03:21:46;;;;;;;0.00;0.00;;;;;;;;;;1740247;28;20226;-72
2022/10/18 03:22:37;;;;;;;0.00;0.00;;;;;;;;;;1740435;28;20683;-71
2022/10/18 03:23:29;;;;;;;0.00;0.00;;;;;;;;;;1739860;28;20202;-71
2022/10/18 03:24:20;;;;;;;0.00;0.00;;;;;;;;;;1740443;28;20217;-71
2022/10/18 03:25:12;;;;;;;0.00;0.00;;;;;;;;;;1740314;28;20202;-71
2022/10/18 03:26:03;;;;;;;0.00;0.00;;;;;;;;;;1740516;28;20206;-69
2022/10/18 03:26:55;;;;;;;0.00;0.00;;;;;;;;;;1742029;28;20206;-70
2022/10/18 03:27:46;;;;;;;0.00;0.00;;;;;;;;;;1746968;28;20292;-70
2022/10/18 03:28:38;;;;;;;0.00;0.00;;;;;;;;;;1743884;28;20250;-70
2022/10/18 03:29:30;;;;;;;0.00;0.00;;;;;;;;;;1740036;28;20644;-71
2022/10/18 03:30:22;;;;;;;0.00;0.00;;;;;;;;;;1740435;28;20217;-70
2022/10/18 03:31:13;;;;;;;0.00;0.00;;;;;;;;;;1740517;28;20217;-71
2022/10/18 03:32:05;;;;;;;0.00;0.00;;;;;;;;;;1741352;28;20205;-71
2022/10/18 03:32:56;;;;;;;0.00;0.00;;;;;;;;;;1740404;28;20238;-71
2022/10/18 03:33:49;;;;;;;0.00;0.00;;;;;;;;;;1739914;28;20490;-71
2022/10/18 03:34:40;;;;;;;0.00;0.00;;;;;;;;;;1739926;28;20241;-71
2022/10/18 03:35:32;;;;;;;0.00;0.00;;;;;;;;;;1740295;28;20226;-71
2022/10/18 03:36:24;;;;;;;0.00;0.00;;;;;;;;;;1740402;28;20640;-70
2022/10/18 03:37:16;;;;;;;0.00;0.00;;;;;;;;;;1740293;28;20640;-70
2022/10/18 03:38:08;;;;;;;0.00;0.00;;;;;;;;;;1740238;28;20203;-69
2022/10/18 03:39:00;;;;;;;0.00;0.00;;;;;;;;;;1740386;28;20203;-70
2022/10/18 03:39:52;;;;;;;0.00;0.00;;;;;;;;;;1746869;28;20197;-70
2022/10/18 03:40:43;;;;;;;0.00;0.00;;;;;;;;;;1747234;28;20245;-70
2022/10/18 03:41:35;;;;;;;0.00;0.00;;;;;;;;;;1747300;28;20607;-71
2022/10/18 03:42:26;;;;;;;0.00;0.00;;;;;;;;;;1742658;28;20567;-71
2022/10/18 03:43:18;;;;;;;0.00;0.00;;;;;;;;;;1747256;28;20519;-71
2022/10/18 03:44:09;;;;;;;0.00;0.00;;;;;;;;;;1746151;28;20233;-71
2022/10/18 03:45:02;;;;;;;0.00;0.00;;;;;;;;;;1747192;28;20206;-71
2022/10/18 03:45:53;;;;;;;0.00;0.00;;;;;;;;;;1740806;28;20498;-69
2022/10/18 03:46:45;;;;;;;0.00;0.00;;;;;;;;;;1739839;28;20195;-69
2022/10/18 03:47:36;;;;;;;0.00;0.00;;;;;;;;;;1740150;28;20266;-69
2022/10/18 03:48:28;;;;;;;0.00;0.00;;;;;;;;;;1739902;28;20213;-70
2022/10/18 03:49:21;;;;;;;0.00;0.00;;;;;;;;;;1740217;28;20230;-70
2022/10/18 03:50:13;;;;;;;0.00;0.00;;;;;;;;;;1740354;28;20628;-70
2022/10/18 03:51:04;;;;;;;0.00;0.00;;;;;;;;;;1739703;28;20344;-70
2022/10/18 03:51:56;;;;;;;0.00;0.00;;;;;;;;;;1739758;28;20213;-69
2022/10/18 03:52:47;;;;;;;0.00;0.00;;;;;;;;;;1740123;28;20289;-70
2022/10/18 03:53:39;;;;;;;0.00;0.00;;;;;;;;;;1739979;28;20234;-70
2022/10/18 03:54:30;;;;;;;0.00;0.00;;;;;;;;;;1739934;28;20622;-70
2022/10/18 03:55:22;;;;;;;0.00;0.00;;;;;;;;;;1740319;28;20210;-71
2022/10/18 03:56:13;;;;;;;0.00;0.00;;;;;;;;;;1743615;28;20264;-71
2022/10/18 03:57:05;;;;;;;0.00;0.00;;;;;;;;;;1739295;28;20207;-71
2022/10/18 03:57:57;;;;;;;0.00;0.00;;;;;;;;;;1740263;28;20294;-71
2022/10/18 03:58:49;;;;;;;0.00;0.00;;;;;;;;;;1739816;28;20205;-71
2022/10/18 03:59:40;;;;;;;0.00;0.00;;;;;;;;;;1740074;28;20210;-71
2022/10/18 04:00:33;;;;;;;0.00;0.00;;;;;;;;;;1740268;28;20735;-71
2022/10/18 04:01:24;;;;;;;0.00;0.00;;;;;;;;;;1739967;28;20321;-71
2022/10/18 04:02:16;;;;;;;0.00;0.00;;;;;;;;;;1740607;28;20222;-71
2022/10/18 04:03:07;;;;;;;0.00;0.00;;;;;;;;;;1740024;28;20241;-71
2022/10/18 04:03:59;;;;;;;0.00;0.00;;;;;;;;;;1740065;28;20237;-71
2022/10/18 04:04:51;;;;;;;0.00;0.00;;;;;;;;;;1739886;28;20226;-71
2022/10/18 04:05:43;;;;;;;0.00;0.00;;;;;;;;;;1740110;28;20203;-71
2022/10/18 04:06:34;;;;;;;0.00;0.00;;;;;;;;;;1740206;28;20309;-71
2022/10/18 04:07:26;;;;;;;0.00;0.00;;;;;;;;;;1746333;28;20198;-71
2022/10/18 04:08:18;;;;;;;0.00;0.00;;;;;;;;;;1746988;28;20225;-71
2022/10/18 04:09:10;;;;;;;0.00;0.00;;;;;;;;;;1746673;28;20572;-71
2022/10/18 04:10:04;;;;;;;0.00;0.00;;;;;;;;;;1746914;28;20202;-71
2022/10/18 04:10:56;;;;;;;0.00;0.00;;;;;;;;;;1746801;28;20264;-71
2022/10/18 04:11:49;;;;;;;0.00;0.00;;;;;;;;;;1746836;28;20264;-71
2022/10/18 04:12:41;;;;;;;0.00;0.00;;;;;;;;;;1746926;28;20264;-71
2022/10/18 04:13:32;;;;;;;0.00;0.00;;;;;;;;;;1746370;28;20210;-71
2022/10/18 04:14:24;;;;;;;0.00;0.00;;;;;;;;;;1747205;28;20624;-71
2022/10/18 04:15:15;;;;;;;0.00;0.00;;;;;;;;;;1747188;28;20234;-71
2022/10/18 04:16:07;;;;;;;0.00;0.00;;;;;;;;;;1743282;28;20211;-70
2022/10/18 04:16:58;;;;;;;0.00;0.00;;;;;;;;;;1739706;28;20235;-70
2022/10/18 04:17:51;;;;;;;0.00;0.00;;;;;;;;;;1740264;28;20203;-70
2022/10/18 04:18:42;;;;;;;0.00;0.00;;;;;;;;;;1742104;28;20203;-70
2022/10/18 04:19:34;;;;;;;0.00;0.00;;;;;;;;;;1746734;28;20194;-71
2022/10/18 04:20:26;;;;;;;0.00;0.00;;;;;;;;;;1746946;28;20253;-70
2022/10/18 04:21:18;;;;;;;0.00;0.00;;;;;;;;;;1746838;28;20276;-70
2022/10/18 04:22:10;;;;;;;0.00;0.00;;;;;;;;;;1742312;28;20293;-69
2022/10/18 04:23:02;;;;;;;0.00;0.00;;;;;;;;;;1740197;28;20285;-69
2022/10/18 04:23:53;;;;;;;0.00;0.00;;;;;;;;;;1744730;28;20663;-69
2022/10/18 04:24:46;;;;;;;0.00;0.00;;;;;;;;;;1746633;28;20202;-70
2022/10/18 04:25:37;;;;;;;0.00;0.00;;;;;;;;;;1747068;28;20289;-70
2022/10/18 04:26:29;;;;;;;0.00;0.00;;;;;;;;;;1747005;28;20202;-71
2022/10/18 04:27:20;;;;;;;0.00;0.00;;;;;;;;;;1746405;28;20202;-71
2022/10/18 04:28:12;;;;;;;0.00;0.00;;;;;;;;;;1741714;28;20215;-71
2022/10/18 04:29:03;;;;;;;0.00;0.00;;;;;;;;;;1740008;28;20672;-71
2022/10/18 04:29:55;;;;;;;0.00;0.00;;;;;;;;;;1739075;28;20195;-71
2022/10/18 04:30:49;;;;;;;0.00;0.00;;;;;;;;;;1735511;28;20246;-71
2022/10/18 04:31:41;;;;;;;0.00;0.00;;;;;;;;;;1734819;28;20226;-69
2022/10/18 04:32:33;;;;;;;0.00;0.00;;;;;;;;;;1745309;28;20245;-69
2022/10/18 04:33:25;;;;;;;0.00;0.00;;;;;;;;;;1740173;28;20214;-69
2022/10/18 04:34:16;;;;;;;0.00;0.00;;;;;;;;;;1739257;28;20293;-70
2022/10/18 04:35:10;;;;;;;0.00;0.00;;;;;;;;;;1741528;28;20836;-70
2022/10/18 04:36:02;;;;;;;0.00;0.00;;;;;;;;;;1746386;28;20240;-71
2022/10/18 04:36:54;;;;;;;0.00;0.00;;;;;;;;;;1743913;28;20235;-71
2022/10/18 04:37:46;;;;;;;0.00;0.00;;;;;;;;;;1739781;28;20290;-71
2022/10/18 04:38:38;;;;;;;0.00;0.00;;;;;;;;;;1739805;28;20230;-71
2022/10/18 04:39:29;;;;;;;0.00;0.00;;;;;;;;;;1744302;28;20206;-71
2022/10/18 04:40:21;;;;;;;0.00;0.00;;;;;;;;;;1747034;28;20229;-71
2022/10/18 04:41:12;;;;;;;0.00;0.00;;;;;;;;;;1746518;28;20540;-71
2022/10/18 04:42:04;;;;;;;0.00;0.00;;;;;;;;;;1746265;28;20552;-71
2022/10/18 04:42:55;;;;;;;0.00;0.00;;;;;;;;;;1747071;28;20607;-71
2022/10/18 04:43:47;;;;;;;0.00;0.00;;;;;;;;;;1746797;28;20288;-71
2022/10/18 04:44:38;;;;;;;0.00;0.00;;;;;;;;;;1746900;28;20245;-71
2022/10/18 04:45:30;;;;;;;0.00;0.00;;;;;;;;;;1747264;28;20260;-71
2022/10/18 04:46:21;;;;;;;0.00;0.00;;;;;;;;;;1746596;28;20252;-70
2022/10/18 04:47:13;;;;;;;0.00;0.00;;;;;;;;;;1746686;28;20623;-70
2022/10/18 04:48:04;;;;;;;0.00;0.00;;;;;;;;;;1746790;28;20234;-70
2022/10/18 04:48:57;;;;;;;0.00;0.00;;;;;;;;;;1743539;28;20199;-70
2022/10/18 04:49:48;;;;;;;0.00;0.00;;;;;;;;;;1740073;28;20203;-70
2022/10/18 04:50:40;;;;;;;0.00;0.00;;;;;;;;;;1739834;28;20732;-70
2022/10/18 04:51:32;;;;;;;0.00;0.00;;;;;;;;;;1740109;28;20286;-71
2022/10/18 04:52:24;;;;;;;0.00;0.00;;;;;;;;;;1744706;28;20206;-71
2022/10/18 04:53:15;;;;;;;0.00;0.00;;;;;;;;;;1747094;28;20264;-71
2022/10/18 04:54:07;;;;;;;0.00;0.00;;;;;;;;;;1741798;28;20198;-71
2022/10/18 04:54:59;;;;;;;0.00;0.00;;;;;;;;;;1739779;28;20625;-71
2022/10/18 04:55:51;;;;;;;0.00;0.00;;;;;;;;;;1740260;28;20250;-71
2022/10/18 04:56:42;;;;;;;0.00;0.00;;;;;;;;;;1732533;28;20200;-71
2022/10/18 04:57:34;;;;;;;0.00;0.00;;;;;;;;;;1732251;28;20199;-71
2022/10/18 04:58:25;;;;;;;0.00;0.00;;;;;;;;;;1737247;28;20737;-71
2022/10/18 04:59:17;;;;;;;0.00;0.00;;;;;;;;;;1739798;28;20509;-71
2022/10/18 05:00:09;;;;;;;0.00;0.00;;;;;;;;;;1740259;28;20278;-71
2022/10/18 05:01:01;;;;;;;0.00;0.00;;;;;;;;;;1739484;28;20268;-71
2022/10/18 05:01:52;;;;;;;0.00;0.00;;;;;;;;;;1740919;28;20259;-71
2022/10/18 05:02:44;;;;;;;0.00;0.00;;;;;;;;;;1743616;28;20203;-71
2022/10/18 05:03:35;;;;;;;0.00;0.00;;;;;;;;;;1736629;28;20246;-71
2022/10/18 05:04:27;;;;;;;0.00;0.00;;;;;;;;;;1735953;28;20207;-71
2022/10/18 05:05:18;;;;;;;0.00;0.00;;;;;;;;;;1736994;28;20886;-71
2022/10/18 05:06:10;;;;;;;0.00;0.00;;;;;;;;;;1739934;28;20199;-71
2022/10/18 05:07:04;;;;;;;0.00;0.00;;;;;;;;;;1739470;28;20282;-71
2022/10/18 05:07:56;;;;;;;0.00;0.00;;;;;;;;;;1740149;28;20214;-71
2022/10/18 05:08:47;;;;;;;0.00;0.00;;;;;;;;;;1742967;28;20256;-71
2022/10/18 05:09:39;;;;;;;0.00;0.00;;;;;;;;;;1746928;28;20198;-71
2022/10/18 05:10:31;;;;;;;0.00;0.00;;;;;;;;;;1743366;28;20223;-71
2022/10/18 05:11:23;;;;;;;0.00;0.00;;;;;;;;;;1739895;28;20199;-70
2022/10/18 05:12:14;;;;;;;0.00;0.00;;;;;;;;;;1739660;28;20261;-70
2022/10/18 05:13:06;;;;;;;0.00;0.00;;;;;;;;;;1739844;28;20237;-70
2022/10/18 05:13:57;;;;;;;0.00;0.00;;;;;;;;;;1740196;28;20281;-70
2022/10/18 05:14:49;;;;;;;0.00;0.00;;;;;;;;;;1740507;28;20203;-70
2022/10/18 05:15:40;;;;;;;0.00;0.00;;;;;;;;;;1741324;28;20257;-70
2022/10/18 05:16:32;;;;;;;0.00;0.00;;;;;;;;;;1741365;28;20207;-70